• Join FlightAware (Why Join?)
  • Login
  • US Flag 
03:46PM EDT


 

Airport Tracker/Info


-or-


 

Live Flight TrackerFlight Track Log ✈ KAL1334 ✈ 11-Jul-2013 ✈ RKJY / RSU - RKSS / GMP

Flight Track Log - Related Links

Times and Time Zones

All times are in EDT time to prevent confusion due to time zone crossing. See the KAL1334 flight status page for this flight to view local times or setup timezone preferences in your user account.

Time Position Orientation Groundspeed Altitude Reporting Facility
EDT Latitude Longitude Course Direction KTS MPH feet Rate Location/Type
11:02PM 34.9956 127.5696 346° North  Level Estimated
11:03PM 35.0735 127.5467 346° North  Level Estimated
11:04PM 35.1514 127.5237 346° North  Level Estimated
11:05PM 35.2293 127.5007 346° North  Level Estimated
11:06PM 35.3072 127.4776 346° North  Level Estimated
11:07PM 35.3851 127.4545 346° North  Level Estimated
11:08PM 35.4630 127.4314 346° North  Level Estimated
11:09PM 35.5409 127.4082 346° North  Level Estimated
11:10PM 35.6188 127.3850 346° North  Level Estimated
11:11PM 35.6966 127.3617 346° North  Level Estimated
11:12PM 35.7745 127.3383 346° North  Level Estimated
11:13PM 35.8524 127.3150 346° North  Level Estimated
11:14PM 35.9302 127.2916 346° North  Level Estimated
11:15PM 36.0081 127.2681 346° North  Level Estimated
11:16PM 36.0513 127.2550 346° North  Level Estimated
11:17PM 36.0946 127.2420 346° North  Level Estimated
11:18PM 36.1378 127.2289 346° North  Level Estimated
11:19PM 36.1811 127.2158 346° North  Level Estimated
11:20PM 36.2243 127.2027 346° North  Level Estimated
11:21PM 36.2676 127.1895 346° North  Level Estimated
11:22PM 36.3108 127.1764 346° North  Level Estimated
11:23PM 36.3540 127.1632 346° North  Level Estimated
11:24PM 36.3973 127.1501 346° North  Level Estimated
11:25PM 36.4405 127.1369 346° North  Level Estimated
11:26PM 36.4838 127.1237 346° North  Level Estimated
11:27PM 36.5270 127.1105 346° North  Level Estimated
11:28PM 36.5702 127.0972 346° North  Level Estimated
11:29PM 36.6134 127.0840 346° North  Level Estimated
11:30PM 36.6567 127.0707 346° North  Level Estimated
11:31PM 36.6999 127.0574 346° North  Level Estimated
11:32PM 36.7431 127.0442 346° North  Level Estimated
11:33PM 36.7864 127.0308 346° North  Level Estimated
11:34PM 36.8296 127.0175 346° North  Level Estimated
11:35PM 36.8728 127.0042 346° North  Level Estimated
11:36PM 36.9160 126.9908 346° North  Level Estimated
11:37PM 36.9593 126.9775 346° North  Level Estimated
11:38PM 37.0025 126.9641 346° North  Level Estimated
11:39PM 37.0457 126.9507 346° North  Level Estimated
11:40PM 37.0889 126.9373 346° North  Level Estimated
11:41PM 37.1321 126.9239 346° North  Level Estimated
11:42PM 37.1753 126.9104 346° North  Level Estimated
11:43PM 37.2185 126.8969 346° North  Level Estimated
11:44PM 37.2617 126.8835 346° North  Level Estimated
11:45PM 37.3050 126.8700 346° North  Level Estimated
11:46PM 37.3482 126.8565 346° North  Level Estimated
11:47PM 37.3914 126.8430 346° North  Level Estimated
11:48PM 37.4346 126.8294 346° North  Level Estimated
11:49PM 37.4778 126.8159 346° North  Level Estimated
11:50PM 37.5210 126.8023 346° North  Level Estimated
11:51PM 37.5583 126.7906 346° North  Level Estimated
11:52PM 37.5583 126.7906 288° West  Level Estimated
11:53PM 37.5583 126.7906 288° West  Level Estimated
11:54PM 37.5583 126.7906 288° West  Level Estimated
11:55PM 37.5583 126.7906 288° West  Level Estimated
11:56PM 37.5583 126.7906 288° West  Level Estimated
11:57PM 37.5583 126.7906 288° West  Level Estimated
11:58PM 37.5583 126.7906 288° West  Level Estimated
11:59PM 37.5583 126.7906 288° West  Level Estimated
12:00AM 37.5583 126.7906 288° West  Level Estimated
12:01AM 37.5583 126.7906 288° West  Level Estimated
12:02AM 37.5583 126.7906 288° West  Level Estimated
12:03AM 37.5583 126.7906 288° West  Level Estimated
12:04AM 37.5583 126.7906 288° West  Level Estimated
12:05AM 37.5583 126.7906 288° West  Level Estimated
12:06AM 37.5583 126.7906 288° West  Level Estimated
12:07AM 37.5583 126.7906 288° West  Level Estimated